Time;durP1;ratioP1;P1;durP2;ratioP2;P2;SDS_P1;SDS_P2;PMS_P1;PMS_P2;Temp;Humidity;BMP_temperature;BMP_pressure;BME280_temperature;BME280_humidity;BME280_pressure;Samples;Min_cycle;Max_cycle;Signal;HPM_P1;HPM_P2
2023/03/12 00:00:40;;;;;;;14.88;6.57;;;18.00;99.90;;;;;;4590584;19;20426;-28
2023/03/12 00:02:31;;;;;;;12.27;5.72;;;18.00;99.90;;;;;;4590226;19;20006;-27
2023/03/12 00:04:05;;;;;;;11.73;6.78;;;18.00;99.90;;;;;;4590103;19;20018;-26
2023/03/12 00:05:38;;;;;;;13.80;6.78;;;17.90;99.90;;;;;;4591691;19;20018;-28
2023/03/12 00:07:09;;;;;;;12.35;6.32;;;18.00;99.90;;;;;;4591396;19;20007;-26
2023/03/12 00:08:41;;;;;;;13.63;6.72;;;18.00;99.90;;;;;;4591217;19;20468;-28
2023/03/12 00:10:14;;;;;;;14.35;6.78;;;18.00;99.90;;;;;;4590096;19;20014;-28
2023/03/12 00:11:45;;;;;;;10.73;5.60;;;18.00;99.90;;;;;;4590973;19;20511;-25
2023/03/12 00:13:16;;;;;;;10.38;5.40;;;18.00;99.90;;;;;;4591341;19;20350;-27
2023/03/12 00:14:49;;;;;;;12.02;5.85;;;18.00;99.90;;;;;;4591066;19;20030;-26
2023/03/12 00:16:20;;;;;;;11.80;5.68;;;18.00;99.90;;;;;;4591362;19;20014;-26
2023/03/12 00:17:52;;;;;;;11.25;5.45;;;18.00;99.90;;;;;;4591140;19;20010;-26
2023/03/12 00:19:24;;;;;;;10.48;5.30;;;18.00;99.90;;;;;;4590917;19;20066;-29
2023/03/12 00:20:56;;;;;;;10.52;5.55;;;17.90;99.90;;;;;;4589714;19;20479;-27
2023/03/12 00:22:29;;;;;;;12.48;6.20;;;17.90;99.90;;;;;;4590631;19;20482;-28
2023/03/12 00:24:03;;;;;;;11.45;5.75;;;17.90;99.90;;;;;;4590585;19;20692;-27
2023/03/12 00:25:34;;;;;;;9.65;5.13;;;18.00;99.90;;;;;;4591040;19;20078;-28
2023/03/12 00:27:06;;;;;;;12.57;6.10;;;18.00;99.90;;;;;;4589950;19;20037;-27
2023/03/12 00:28:39;;;;;;;11.95;5.28;;;18.00;99.90;;;;;;4590898;19;20006;-29
2023/03/12 00:30:12;;;;;;;9.98;5.15;;;18.00;99.90;;;;;;4589804;19;20010;-28
2023/03/12 00:31:45;;;;;;;11.18;5.35;;;18.00;99.90;;;;;;4590393;19;20014;-26
2023/03/12 00:33:17;;;;;;;9.43;5.30;;;17.90;99.90;;;;;;4591233;19;20491;-32
2023/03/12 00:34:55;;;;;;;9.23;4.57;;;17.90;99.90;;;;;;4589940;19;20022;-26
2023/03/12 00:36:28;;;;;;;9.15;5.20;;;17.90;99.90;;;;;;4589649;19;19998;-27
2023/03/12 00:38:00;;;;;;;10.18;5.53;;;17.90;99.90;;;;;;4590700;19;20003;-28
2023/03/12 00:39:33;;;;;;;11.32;5.60;;;17.90;99.90;;;;;;4590487;19;20024;-27
2023/03/12 00:41:06;;;;;;;10.20;4.72;;;17.90;99.90;;;;;;4590647;19;20409;-27
2023/03/12 00:42:39;;;;;;;9.52;4.72;;;17.80;99.90;;;;;;4590553;19;20011;-25
2023/03/12 00:44:13;;;;;;;9.65;4.90;;;17.80;99.90;;;;;;4589675;19;20015;-25
2023/03/12 00:45:45;;;;;;;9.45;5.20;;;17.80;99.90;;;;;;4590920;19;20088;-31
2023/03/12 00:47:17;;;;;;;8.20;4.05;;;17.80;99.90;;;;;;4590327;19;20022;-26
2023/03/12 00:48:48;;;;;;;8.63;4.55;;;17.80;99.90;;;;;;4590392;19;20472;-28
2023/03/12 00:50:20;;;;;;;10.23;5.03;;;17.80;99.90;;;;;;4590640;19;20035;-28
2023/03/12 00:51:53;;;;;;;7.40;4.38;;;17.90;99.90;;;;;;4590383;19;20090;-27
2023/03/12 00:53:25;;;;;;;9.93;5.10;;;17.80;99.90;;;;;;4590662;19;20010;-27
2023/03/12 00:54:58;;;;;;;7.93;3.78;;;17.90;99.90;;;;;;4590379;19;20022;-25
2023/03/12 00:56:31;;;;;;;9.88;5.22;;;17.80;99.90;;;;;;4590417;19;20074;-26
2023/03/12 00:58:03;;;;;;;8.15;4.28;;;17.80;99.90;;;;;;4590382;19;20045;-26
2023/03/12 00:59:39;;;;;;;9.30;4.57;;;17.90;99.90;;;;;;4589538;19;20476;-28
2023/03/12 01:01:10;;;;;;;8.85;4.47;;;17.80;99.90;;;;;;4589272;19;20010;-25
2023/03/12 01:02:43;;;;;;;10.18;4.95;;;17.80;99.90;;;;;;4587824;19;20011;-30
2023/03/12 01:04:16;;;;;;;9.05;4.22;;;17.80;99.90;;;;;;4588059;19;20018;-28
2023/03/12 01:05:52;;;;;;;8.68;3.78;;;17.80;99.90;;;;;;4590172;19;20033;-29
2023/03/12 01:07:25;;;;;;;7.78;4.13;;;17.80;99.90;;;;;;4589036;19;20374;-26
2023/03/12 01:09:04;;;;;;;9.45;4.45;;;17.80;99.90;;;;;;4589691;19;20503;-26
2023/03/12 01:10:39;;;;;;;8.75;3.92;;;17.90;99.90;;;;;;4590108;19;20006;-27
2023/03/12 01:12:11;;;;;;;8.23;3.90;;;17.90;99.90;;;;;;4590021;19;20472;-27
2023/03/12 01:13:42;;;;;;;7.95;3.75;;;17.90;99.90;;;;;;4587676;19;20011;-25
2023/03/12 01:15:14;;;;;;;;;;;17.80;99.90;;;;;;4590112;19;20515;-28
2023/03/12 01:16:45;;;;;;;7.13;3.65;;;17.80;99.90;;;;;;4588786;19;20305;-28
2023/03/12 01:18:18;;;;;;;6.47;4.00;;;17.90;99.90;;;;;;4589849;19;20003;-28
2023/03/12 01:19:51;;;;;;;7.22;3.40;;;17.80;99.90;;;;;;4589942;19;20014;-27
2023/03/12 01:21:24;;;;;;;6.45;3.75;;;17.80;99.90;;;;;;4589843;19;20018;-25
2023/03/12 01:22:57;;;;;;;7.10;3.50;;;17.80;99.90;;;;;;4589735;19;20472;-26
2023/03/12 01:24:28;;;;;;;;;;;17.80;99.90;;;;;;4589909;19;20010;-26
2023/03/12 01:26:02;;;;;;;7.30;3.45;;;17.80;99.90;;;;;;4589685;19;19911;-27
2023/03/12 01:27:33;;;;;;;5.65;2.80;;;17.80;99.90;;;;;;4589832;19;20014;-30
2023/03/12 01:29:05;;;;;;;;;;;17.80;99.90;;;;;;4589597;19;20443;-27
2023/03/12 01:30:39;;;;;;;7.72;3.80;;;17.80;99.90;;;;;;4589669;19;19918;-29
2023/03/12 01:32:11;;;;;;;7.07;3.30;;;17.80;99.90;;;;;;4589835;19;20472;-27
2023/03/12 01:33:47;;;;;;;6.60;3.40;;;17.80;99.90;;;;;;4589232;19;20025;-26
2023/03/12 01:35:20;;;;;;;7.75;3.70;;;17.80;99.90;;;;;;4589688;19;20010;-26
2023/03/12 01:36:54;;;;;;;6.10;3.30;;;17.80;99.90;;;;;;4589791;19;20369;-26
2023/03/12 01:38:26;;;;;;;6.72;3.08;;;17.80;99.90;;;;;;4589453;19;20025;-26
2023/03/12 01:39:57;;;;;;;6.50;3.20;;;17.80;99.90;;;;;;4588409;19;20350;-26
2023/03/12 01:41:31;;;;;;;7.22;3.47;;;17.80;99.90;;;;;;4589623;19;20006;-29
2023/03/12 01:43:25;;;;;;;5.75;2.90;;;17.80;99.90;;;;;;4588364;19;20482;-28
2023/03/12 01:45:00;;;;;;;5.80;3.00;;;17.80;99.90;;;;;;4589301;19;20031;-27
2023/03/12 01:46:37;;;;;;;5.63;3.25;;;17.80;99.90;;;;;;4589426;19;20016;-25
2023/03/12 01:48:09;;;;;;;5.70;3.10;;;17.80;99.90;;;;;;4589397;19;20090;-26
2023/03/12 01:49:42;;;;;;;6.10;3.50;;;17.80;99.90;;;;;;4588203;19;20417;-29
2023/03/12 01:51:15;;;;;;;6.22;3.58;;;17.80;99.90;;;;;;4588890;19;20014;-25
2023/03/12 01:52:47;;;;;;;7.65;3.08;;;17.80;99.90;;;;;;4588148;19;20006;-26
2023/03/12 01:54:22;;;;;;;5.43;2.92;;;17.80;99.90;;;;;;4588146;19;20525;-29
2023/03/12 01:55:53;;;;;;;5.15;2.60;;;17.80;99.90;;;;;;4590095;19;20014;-26
2023/03/12 01:57:30;;;;;;;6.15;3.10;;;17.80;99.90;;;;;;4588213;19;20014;-30
2023/03/12 01:59:11;;;;;;;5.97;3.10;;;17.80;99.90;;;;;;4588039;19;20503;-28
2023/03/12 02:00:42;;;;;;;6.03;3.20;;;17.80;99.90;;;;;;4588003;19;20018;-26
2023/03/12 02:02:13;;;;;;;;;;;17.80;99.90;;;;;;4589680;19;20350;-24
2023/03/12 02:03:49;;;;;;;5.55;2.55;;;17.80;99.90;;;;;;4588635;19;19922;-26
2023/03/12 02:05:22;;;;;;;5.57;2.50;;;17.80;99.90;;;;;;4588236;19;20015;-30
2023/03/12 02:07:08;;;;;;;5.03;2.40;;;17.80;99.90;;;;;;4588919;19;20022;-29
2023/03/12 02:08:41;;;;;;;4.88;2.53;;;17.80;99.90;;;;;;4587970;19;20018;-29
2023/03/12 02:10:12;;;;;;;6.05;2.88;;;17.80;99.90;;;;;;4588190;19;20014;-28
2023/03/12 02:11:44;;;;;;;;;;;17.80;99.90;;;;;;4589611;19;20015;-26
2023/03/12 02:13:15;;;;;;;6.00;2.78;;;17.80;99.90;;;;;;4589010;19;19925;-29
2023/03/12 02:14:48;;;;;;;4.93;2.55;;;17.80;99.90;;;;;;4589217;19;20492;-27
2023/03/12 02:16:20;;;;;;;5.20;2.63;;;17.80;99.90;;;;;;4588928;19;20097;-26
2023/03/12 02:17:53;;;;;;;4.45;2.50;;;17.80;99.90;;;;;;4589012;19;20396;-27
2023/03/12 02:19:30;;;;;;;4.15;2.20;;;17.80;99.90;;;;;;4587966;19;20460;-26
2023/03/12 02:21:12;;;;;;;6.20;3.05;;;17.80;99.90;;;;;;4588061;19;20028;-26
2023/03/12 02:22:48;;;;;;;5.07;2.47;;;17.80;99.90;;;;;;4589364;19;20166;-26
2023/03/12 02:24:43;;;;;;;5.10;2.42;;;17.80;99.90;;;;;;4586952;19;20082;-30
2023/03/12 02:26:15;;;;;;;6.38;2.70;;;17.80;99.90;;;;;;4588849;19;20018;-28
2023/03/12 02:27:50;;;;;;;5.53;2.30;;;17.80;99.90;;;;;;4587585;19;20599;-28
2023/03/12 02:29:24;;;;;;;5.10;2.45;;;17.90;99.90;;;;;;4587608;19;20089;-25
2023/03/12 02:31:01;;;;;;;4.32;1.75;;;17.90;99.90;;;;;;4587390;19;20010;-28
2023/03/12 02:32:34;;;;;;;5.88;2.78;;;17.90;99.90;;;;;;4587705;19;20377;-26
2023/03/12 02:34:08;;;;;;;4.70;2.22;;;17.90;99.90;;;;;;4587635;19;20483;-29
2023/03/12 02:35:39;;;;;;;5.13;2.10;;;17.90;99.90;;;;;;4588694;19;20025;-30
2023/03/12 02:37:12;;;;;;;4.28;2.00;;;17.90;99.90;;;;;;4588464;19;20015;-26
2023/03/12 02:38:47;;;;;;;4.72;2.30;;;17.90;99.90;;;;;;4587393;19;20014;-25
2023/03/12 02:40:35;;;;;;;4.97;2.30;;;17.90;99.90;;;;;;4587370;19;20011;-27
2023/03/12 02:42:08;;;;;;;4.53;2.10;;;17.90;99.90;;;;;;4587173;19;20464;-26
2023/03/12 02:43:42;;;;;;;4.53;2.30;;;17.90;99.90;;;;;;4586878;19;20602;-26
2023/03/12 02:45:14;;;;;;;4.45;2.17;;;17.90;99.90;;;;;;4588132;19;20007;-29
2023/03/12 02:46:51;;;;;;;4.80;2.50;;;17.90;99.90;;;;;;4587156;19;20007;-26
2023/03/12 02:48:23;;;;;;;5.60;2.00;;;17.90;99.90;;;;;;4588000;19;20370;-25
2023/03/12 02:49:55;;;;;;;;;;;17.90;99.90;;;;;;4589593;19;20011;-26
2023/03/12 02:51:27;;;;;;;;;;;17.90;99.90;;;;;;4589319;19;19938;-28
2023/03/12 02:52:58;;;;;;;5.03;2.35;;;17.90;99.90;;;;;;4587171;19;19915;-30
2023/03/12 02:54:30;;;;;;;5.60;2.38;;;17.90;99.90;;;;;;4588000;19;20018;-26
2023/03/12 02:56:01;;;;;;;4.68;2.15;;;17.90;99.90;;;;;;4588184;19;20018;-30
2023/03/12 02:57:36;;;;;;;4.30;2.08;;;17.90;99.90;;;;;;4588373;19;20021;-28
2023/03/12 02:59:09;;;;;;;4.57;2.38;;;17.90;99.90;;;;;;4588256;19;20011;-27
2023/03/12 03:00:40;;;;;;;3.40;1.98;;;17.90;99.90;;;;;;4588255;19;20014;-27
2023/03/12 03:02:11;;;;;;;5.80;2.22;;;17.90;99.90;;;;;;4588128;19;20019;-26
2023/03/12 03:03:43;;;;;;;3.97;2.05;;;17.90;99.90;;;;;;4587628;19;20007;-28
2023/03/12 03:05:15;;;;;;;4.10;1.80;;;17.90;99.90;;;;;;4588299;19;20034;-26
2023/03/12 03:06:48;;;;;;;3.38;1.73;;;17.90;99.90;;;;;;4591853;19;20014;-27
2023/03/12 03:08:20;;;;;;;4.03;1.85;;;17.90;99.90;;;;;;4592543;19;20010;-25
2023/03/12 03:09:54;;;;;;;3.70;1.88;;;17.90;99.90;;;;;;4592404;19;20007;-26
2023/03/12 03:11:25;;;;;;;4.22;2.00;;;17.90;99.90;;;;;;4592407;19;20487;-26
2023/03/12 03:12:57;;;;;;;3.30;1.55;;;17.90;99.90;;;;;;4592826;19;20019;-28
2023/03/12 03:14:30;;;;;;;4.35;2.30;;;17.90;99.90;;;;;;4592332;19;20007;-26
2023/03/12 03:16:02;;;;;;;4.55;1.58;;;17.90;99.90;;;;;;4592391;19;20021;-27
2023/03/12 03:17:34;;;;;;;3.72;1.80;;;18.00;99.90;;;;;;4592545;19;20078;-27
2023/03/12 03:19:06;;;;;;;4.10;2.20;;;18.00;99.90;;;;;;4591351;19;20023;-29
2023/03/12 03:20:38;;;;;;;3.60;1.70;;;18.00;99.90;;;;;;4591918;19;20010;-28
2023/03/12 03:22:09;;;;;;;;;;;17.90;99.90;;;;;;4592210;19;20010;-25
2023/03/12 03:23:41;;;;;;;3.55;1.95;;;18.00;99.90;;;;;;4591708;19;19934;-29
2023/03/12 03:25:12;;;;;;;4.72;2.35;;;18.00;99.90;;;;;;4592218;19;20340;-27
2023/03/12 03:26:44;;;;;;;;;;;17.90;99.90;;;;;;4593075;19;20010;-25
2023/03/12 03:28:16;;;;;;;3.45;1.67;;;18.00;99.90;;;;;;4592238;19;19922;-28
2023/03/12 03:29:49;;;;;;;3.55;1.63;;;18.00;99.90;;;;;;4591467;19;20015;-25
2023/03/12 03:31:21;;;;;;;3.83;1.83;;;17.90;99.90;;;;;;4591756;19;20044;-25
2023/03/12 03:32:53;;;;;;;;;;;17.90;99.90;;;;;;4593083;19;20070;-29
2023/03/12 03:34:24;;;;;;;4.20;1.98;;;18.00;99.90;;;;;;4591156;19;19915;-26
2023/03/12 03:35:58;;;;;;;3.50;1.95;;;18.00;99.90;;;;;;4590031;19;20648;-29
2023/03/12 03:37:31;;;;;;;3.72;1.60;;;18.00;99.90;;;;;;4591509;19;20016;-25
2023/03/12 03:39:04;;;;;;;3.05;1.50;;;18.00;99.90;;;;;;4591261;19;20010;-25
2023/03/12 03:40:37;;;;;;;3.35;1.80;;;18.00;99.90;;;;;;4591947;19;20485;-26
2023/03/12 03:42:09;;;;;;;3.40;1.58;;;18.00;99.90;;;;;;4591966;19;20078;-29
2023/03/12 03:43:40;;;;;;;3.45;1.33;;;18.00;99.90;;;;;;4591368;19;20015;-29
2023/03/12 03:45:12;;;;;;;;;;;18.00;99.90;;;;;;4591868;19;20034;-30
2023/03/12 03:46:43;;;;;;;3.90;1.73;;;18.00;99.90;;;;;;4591198;19;19915;-25
2023/03/12 03:48:15;;;;;;;3.95;1.65;;;18.00;99.90;;;;;;4592094;19;20014;-26
2023/03/12 03:49:47;;;;;;;;;;;18.00;99.90;;;;;;4592534;19;20065;-31
2023/03/12 03:51:18;;;;;;;3.30;1.52;;;18.00;99.90;;;;;;4591955;19;20245;-27
2023/03/12 03:52:51;;;;;;;2.97;1.40;;;18.00;99.90;;;;;;4591890;19;20011;-27
2023/03/12 03:54:23;;;;;;;3.08;1.73;;;17.90;99.90;;;;;;4592127;19;20077;-28
2023/03/12 03:55:54;;;;;;;3.00;1.48;;;17.90;99.90;;;;;;4591798;19;20030;-27
2023/03/12 03:57:27;;;;;;;2.17;1.17;;;17.90;99.90;;;;;;4591763;19;20074;-26
2023/03/12 03:59:00;;;;;;;3.83;1.17;;;17.90;99.90;;;;;;4590553;19;20437;-28
2023/03/12 04:00:33;;;;;;;3.17;1.30;;;17.90;99.90;;;;;;4591002;19;20041;-26
2023/03/12 04:02:04;;;;;;;;;;;17.90;99.90;;;;;;4592351;19;20017;-25
2023/03/12 04:03:36;;;;;;;3.90;1.23;;;17.90;99.90;;;;;;4591211;19;19919;-30
2023/03/12 04:05:08;;;;;;;3.10;1.35;;;17.90;99.90;;;;;;4591495;19;20018;-25
2023/03/12 04:06:41;;;;;;;3.53;1.50;;;17.90;99.90;;;;;;4590320;19;20010;-25
2023/03/12 04:08:13;;;;;;;;;;;17.90;99.90;;;;;;4591147;19;20015;-24
2023/03/12 04:09:46;;;;;;;2.80;1.20;;;17.90;99.90;;;;;;4590724;19;20240;-25
2023/03/12 04:11:18;;;;;;;2.80;1.50;;;17.90;99.90;;;;;;4593680;19;20026;-28
2023/03/12 04:12:52;;;;;;;2.72;1.50;;;17.90;99.90;;;;;;4591275;19;20066;-27
2023/03/12 04:14:25;;;;;;;4.18;1.42;;;17.90;99.90;;;;;;4591123;19;20471;-28
2023/03/12 04:15:56;;;;;;;4.13;1.73;;;18.00;99.90;;;;;;4591140;19;20007;-29
2023/03/12 04:17:29;;;;;;;4.00;1.40;;;17.90;99.90;;;;;;4590647;19;20363;-28
2023/03/12 04:19:02;;;;;;;4.35;1.80;;;18.00;99.90;;;;;;4591172;19;20010;-31
2023/03/12 04:20:34;;;;;;;2.72;1.48;;;18.00;99.90;;;;;;4591194;19;20077;-27
2023/03/12 04:22:06;;;;;;;2.53;1.55;;;18.00;99.90;;;;;;4592823;19;20373;-25
2023/03/12 04:23:37;;;;;;;2.22;1.40;;;18.00;99.90;;;;;;4593024;19;20464;-26
2023/03/12 04:25:10;;;;;;;2.60;1.30;;;18.00;99.90;;;;;;4593292;19;20010;-28
2023/03/12 04:26:42;;;;;;;3.08;1.35;;;18.00;99.90;;;;;;4592782;19;20015;-27
2023/03/12 04:28:14;;;;;;;;;;;18.00;99.90;;;;;;4594583;19;20460;-26
2023/03/12 04:29:45;;;;;;;3.40;1.50;;;18.00;99.90;;;;;;4593144;19;19915;-24
2023/03/12 04:31:16;;;;;;;;;;;18.00;99.90;;;;;;4594091;19;20011;-27
2023/03/12 04:32:48;;;;;;;2.83;1.30;;;17.90;99.90;;;;;;4590685;19;19939;-26
2023/03/12 04:34:21;;;;;;;3.85;1.50;;;17.90;99.90;;;;;;4588921;19;20042;-27
2023/03/12 04:35:53;;;;;;;2.67;1.40;;;17.90;99.90;;;;;;4590492;19;20110;-29
2023/03/12 04:37:24;;;;;;;2.10;1.10;;;17.90;99.90;;;;;;4590830;19;20018;-28
2023/03/12 04:38:57;;;;;;;2.85;1.35;;;17.90;99.90;;;;;;4589439;19;20046;-26
2023/03/12 04:40:28;;;;;;;2.85;1.58;;;17.90;99.90;;;;;;4590896;19;20006;-24
2023/03/12 04:42:01;;;;;;;3.97;1.30;;;17.80;99.90;;;;;;4590582;19;20021;-28
2023/03/12 04:43:33;;;;;;;2.90;1.40;;;17.80;99.90;;;;;;4590314;19;20034;-26
2023/03/12 04:45:07;;;;;;;2.38;0.88;;;17.80;99.90;;;;;;4590558;19;20074;-25
2023/03/12 04:46:38;;;;;;;;;;;17.80;99.90;;;;;;4591450;19;20378;-24
2023/03/12 04:48:11;;;;;;;3.05;1.23;;;17.80;99.90;;;;;;4590428;19;19918;-27
2023/03/12 04:49:42;;;;;;;3.03;1.30;;;17.80;99.90;;;;;;4590706;19;20086;-26
2023/03/12 04:51:14;;;;;;;2.42;1.05;;;17.80;99.90;;;;;;4590742;19;20011;-31
2023/03/12 04:52:47;;;;;;;2.85;1.40;;;17.80;99.90;;;;;;4590819;19;20006;-29
2023/03/12 04:54:19;;;;;;;2.47;1.15;;;17.70;99.90;;;;;;4590613;19;20495;-27
2023/03/12 04:55:51;;;;;;;3.17;0.90;;;17.70;99.90;;;;;;4590345;19;20014;-26
2023/03/12 04:57:22;;;;;;;2.85;1.17;;;17.70;99.90;;;;;;4589725;19;20011;-26
2023/03/12 04:58:54;;;;;;;2.50;1.00;;;17.70;99.90;;;;;;4589847;19;20018;-25
2023/03/12 05:00:26;;;;;;;2.30;0.95;;;17.70;99.90;;;;;;4590294;19;20512;-26
2023/03/12 05:01:58;;;;;;;2.25;1.00;;;17.70;99.90;;;;;;4589819;19;20030;-25
2023/03/12 05:03:30;;;;;;;2.92;1.23;;;17.70;99.90;;;;;;4589807;19;20654;-26
2023/03/12 05:05:01;;;;;;;2.90;1.10;;;17.60;99.90;;;;;;4591291;19;20342;-29
2023/03/12 05:06:32;;;;;;;2.40;0.90;;;17.60;99.90;;;;;;4592521;19;20037;-26
2023/03/12 05:08:04;;;;;;;3.72;1.08;;;17.60;99.90;;;;;;4591354;19;20347;-28
2023/03/12 05:09:35;;;;;;;2.30;0.90;;;17.60;99.90;;;;;;4590914;19;20022;-28
2023/03/12 05:11:07;;;;;;;3.13;1.40;;;17.60;99.90;;;;;;4592850;19;20011;-26
2023/03/12 05:12:38;;;;;;;2.78;1.02;;;17.60;99.90;;;;;;4591486;19;20021;-26
2023/03/12 05:14:12;;;;;;;2.33;0.98;;;17.60;99.90;;;;;;4592316;19;20006;-26
2023/03/12 05:15:44;;;;;;;1.70;0.90;;;17.60;99.90;;;;;;4590432;19;20463;-29
2023/03/12 05:17:16;;;;;;;2.80;1.20;;;17.60;99.90;;;;;;4592251;19;20128;-25
2023/03/12 05:18:47;;;;;;;2.13;1.00;;;17.50;99.90;;;;;;4590217;19;20011;-27
2023/03/12 05:20:18;;;;;;;3.00;1.10;;;17.50;99.90;;;;;;4590296;19;20010;-27
2023/03/12 05:21:49;;;;;;;2.78;1.40;;;17.50;99.90;;;;;;4592431;19;20014;-27
2023/03/12 05:23:20;;;;;;;2.35;1.00;;;17.50;99.90;;;;;;4591062;19;20018;-25
2023/03/12 05:24:52;;;;;;;2.17;1.20;;;17.50;99.90;;;;;;4591631;19;20122;-26
2023/03/12 05:26:25;;;;;;;3.40;1.00;;;17.50;99.90;;;;;;4590857;19;20010;-30
2023/03/12 05:27:56;;;;;;;1.65;0.93;;;17.50;99.90;;;;;;4590932;19;20014;-27
2023/03/12 05:29:34;;;;;;;4.28;1.30;;;17.50;99.90;;;;;;4589579;19;20014;-25
2023/03/12 05:31:08;;;;;;;1.60;0.80;;;17.40;99.90;;;;;;4589984;19;20022;-26
2023/03/12 05:32:39;;;;;;;2.80;1.00;;;17.40;99.90;;;;;;4591328;19;20014;-27
2023/03/12 05:34:12;;;;;;;3.70;1.30;;;17.40;99.90;;;;;;4588043;19;20031;-26
2023/03/12 05:35:43;;;;;;;2.90;1.13;;;17.40;99.90;;;;;;4591160;19;20078;-28
2023/03/12 05:37:15;;;;;;;5.75;1.33;;;17.40;99.90;;;;;;4591740;19;20037;-25
2023/03/12 05:38:47;;;;;;;2.90;1.30;;;17.40;99.90;;;;;;4590630;19;20014;-30
2023/03/12 05:40:19;;;;;;;3.95;1.10;;;17.40;99.90;;;;;;4591727;19;20108;-25
2023/03/12 05:41:55;;;;;;;2.40;1.10;;;17.40;99.90;;;;;;4591178;19;20110;-26
2023/03/12 05:43:26;;;;;;;2.55;1.40;;;17.40;99.90;;;;;;4588893;19;20010;-26
2023/03/12 05:44:59;;;;;;;3.55;1.05;;;17.30;99.90;;;;;;4589507;19;20027;-26
2023/03/12 05:46:30;;;;;;;3.55;1.10;;;17.30;99.90;;;;;;4586651;19;20015;-29
2023/03/12 05:48:01;;;;;;;1.92;0.90;;;17.30;99.90;;;;;;4589092;19;20014;-26
2023/03/12 05:49:33;;;;;;;;;;;17.30;99.90;;;;;;4589175;19;20385;-27
2023/03/12 05:51:04;;;;;;;4.53;1.65;;;17.30;99.90;;;;;;4588274;19;19931;-26
2023/03/12 05:52:36;;;;;;;2.08;1.15;;;17.30;99.90;;;;;;4591249;19;20050;-25
2023/03/12 05:54:08;;;;;;;3.40;0.90;;;17.30;99.90;;;;;;4589183;19;20033;-26
2023/03/12 05:55:41;;;;;;;5.60;1.10;;;17.20;99.90;;;;;;4589541;19;20041;-26
2023/03/12 05:57:12;;;;;;;1.67;0.80;;;17.20;99.90;;;;;;4589078;19;20047;-28
2023/03/12 05:58:44;;;;;;;2.25;0.88;;;17.20;99.90;;;;;;4589098;19;20480;-28
2023/03/12 06:00:16;;;;;;;2.03;0.98;;;17.20;99.90;;;;;;4589105;19;20011;-27
2023/03/12 06:01:48;;;;;;;2.47;1.20;;;17.20;99.90;;;;;;4587645;19;20018;-26
2023/03/12 06:03:20;;;;;;;3.65;1.15;;;17.20;99.90;;;;;;4589135;19;20023;-25
2023/03/12 06:04:52;;;;;;;3.03;1.52;;;17.20;99.90;;;;;;4588016;19;20483;-27
2023/03/12 06:06:24;;;;;;;2.28;1.10;;;17.20;99.90;;;;;;4589376;19;20014;-30
2023/03/12 06:07:55;;;;;;;5.93;1.88;;;17.20;99.90;;;;;;4588956;19;20010;-25
2023/03/12 06:09:26;;;;;;;4.57;1.75;;;17.20;99.90;;;;;;4589102;19;20387;-26
2023/03/12 06:10:58;;;;;;;4.03;1.63;;;17.20;99.90;;;;;;4589124;19;20015;-28
2023/03/12 06:12:30;;;;;;;3.13;1.40;;;17.20;99.90;;;;;;4588675;19;20021;-28
2023/03/12 06:14:01;;;;;;;4.45;1.10;;;17.20;99.90;;;;;;4588475;19;20026;-27
2023/03/12 06:15:33;;;;;;;2.42;1.40;;;17.20;99.90;;;;;;4588989;19;20026;-28
2023/03/12 06:17:04;;;;;;;;;;;17.20;99.90;;;;;;4589998;19;20015;-28
2023/03/12 06:18:36;;;;;;;3.35;1.73;;;17.20;99.90;;;;;;4588790;19;19914;-27
2023/03/12 06:20:09;;;;;;;3.33;1.60;;;17.10;99.90;;;;;;4587905;19;20015;-26
2023/03/12 06:21:42;;;;;;;4.60;1.40;;;17.10;99.90;;;;;;4587899;19;20007;-25
2023/03/12 06:23:13;;;;;;;2.58;1.20;;;17.10;99.90;;;;;;4587733;19;20070;-29
2023/03/12 06:24:46;;;;;;;2.17;1.02;;;17.20;99.90;;;;;;4586058;19;20026;-27
2023/03/12 06:26:19;;;;;;;2.30;1.23;;;17.20;99.90;;;;;;4587003;19;20019;-29
2023/03/12 06:27:50;;;;;;;8.48;1.05;;;17.20;99.90;;;;;;4587186;19;20078;-25
2023/03/12 06:29:21;;;;;;;2.15;0.98;;;17.20;99.90;;;;;;4589633;19;20023;-27
2023/03/12 06:30:53;;;;;;;;;;;17.20;99.90;;;;;;4590652;19;20498;-31
2023/03/12 06:32:24;;;;;;;4.03;1.35;;;17.20;99.90;;;;;;4587703;19;19918;-28
2023/03/12 06:33:56;;;;;;;4.30;1.33;;;17.30;99.90;;;;;;4587569;19;20410;-26
2023/03/12 06:35:29;;;;;;;2.17;1.10;;;17.30;99.90;;;;;;4588089;19;20018;-28
2023/03/12 06:37:01;;;;;;;;;;;17.30;99.90;;;;;;4588652;19;20033;-26
2023/03/12 06:38:32;;;;;;;2.67;1.27;;;17.30;99.90;;;;;;4587441;19;19921;-26
2023/03/12 06:40:08;;;;;;;5.13;1.10;;;17.40;99.90;;;;;;4588847;19;20014;-28
2023/03/12 06:41:40;;;;;;;4.85;1.17;;;17.40;99.90;;;;;;4591476;19;20014;-27
2023/03/12 06:43:13;;;;;;;2.80;1.00;;;17.40;99.90;;;;;;4591681;19;20188;-26
2023/03/12 06:44:44;;;;;;;2.78;1.00;;;17.40;99.90;;;;;;4592575;19;20015;-29
2023/03/12 06:46:17;;;;;;;2.17;0.77;;;17.40;99.90;;;;;;4593976;19;20018;-26
2023/03/12 06:47:48;;;;;;;4.22;0.80;;;17.40;99.90;;;;;;4593365;19;20015;-26
2023/03/12 06:49:19;;;;;;;;;;;17.40;99.90;;;;;;4593024;19;20736;-31
2023/03/12 06:50:51;;;;;;;3.70;1.10;;;17.40;99.90;;;;;;4592357;19;20027;-29
2023/03/12 06:52:22;;;;;;;2.00;0.80;;;17.40;99.90;;;;;;4592908;19;20070;-27
2023/03/12 06:53:53;;;;;;;4.07;1.20;;;17.40;99.90;;;;;;4591952;19;20011;-27
2023/03/12 06:55:25;;;;;;;3.30;1.75;;;17.40;99.90;;;;;;4591605;19;20014;-30
2023/03/12 06:56:58;;;;;;;;;;;17.40;99.90;;;;;;4591152;19;20014;-26
2023/03/12 06:58:30;;;;;;;1.83;1.20;;;17.40;99.90;;;;;;4591229;19;19986;-27
2023/03/12 07:00:03;;;;;;;4.20;0.80;;;17.40;99.90;;;;;;4594429;19;20062;-28
2023/03/12 07:01:35;;;;;;;3.35;1.20;;;17.40;99.90;;;;;;4589770;19;20472;-28
2023/03/12 07:03:07;;;;;;;2.83;0.95;;;17.30;99.90;;;;;;4591989;19;20040;-26
2023/03/12 07:04:38;;;;;;;;;;;17.30;99.90;;;;;;4591367;19;20052;-25
2023/03/12 07:06:17;;;;;;;2.50;1.10;;;17.30;99.90;;;;;;4591943;19;20079;-27
2023/03/12 07:07:49;;;;;;;1.38;0.55;;;17.30;99.90;;;;;;4591478;19;20037;-26
2023/03/12 07:09:21;;;;;;;2.10;0.80;;;17.30;99.90;;;;;;4591219;19;20051;-27
2023/03/12 07:10:52;;;;;;;2.70;1.35;;;17.30;99.90;;;;;;4591210;19;20015;-26
2023/03/12 07:12:24;;;;;;;2.72;0.90;;;17.30;99.90;;;;;;4591057;19;20471;-26
2023/03/12 07:13:56;;;;;;;4.28;0.95;;;17.20;99.90;;;;;;4593339;19;20392;-26
2023/03/12 07:15:28;;;;;;;2.00;0.82;;;17.30;99.90;;;;;;4592955;19;20011;-27
2023/03/12 07:17:01;;;;;;;2.45;0.98;;;17.20;99.90;;;;;;4592867;19;20015;-26
2023/03/12 07:18:32;;;;;;;2.63;1.30;;;17.20;99.90;;;;;;4592446;19;20011;-27
2023/03/12 07:20:04;;;;;;;;;;;16.80;96.70;;;;;;4591324;19;20042;-25
2023/03/12 07:21:35;;;;;;;4.15;1.52;;;15.70;92.40;;;;;;4590644;19;19915;-25
2023/03/12 07:23:07;;;;;;;4.90;1.60;;;14.20;91.60;;;;;;4592627;19;20587;-26
2023/03/12 07:24:38;;;;;;;;;;;13.50;92.30;;;;;;4591366;19;20051;-23
2023/03/12 07:26:10;;;;;;;5.88;2.45;;;13.00;92.90;;;;;;4591685;19;19921;-25
2023/03/12 07:27:41;;;;;;;3.05;1.55;;;12.60;93.00;;;;;;4593549;19;20014;-23
2023/03/12 07:29:14;;;;;;;4.13;1.83;;;12.30;92.90;;;;;;4593122;19;20018;-27
2023/03/12 07:30:54;;;;;;;;;;;11.90;93.10;;;;;;4593592;19;20575;-28
2023/03/12 07:32:25;;;;;;;5.07;1.87;;;11.80;93.70;;;;;;4591830;19;19922;-25
2023/03/12 07:33:58;;;;;;;4.80;1.73;;;11.80;93.60;;;;;;4591266;19;20571;-26
2023/03/12 07:35:31;;;;;;;6.97;2.47;;;11.80;93.80;;;;;;4591911;19;20041;-27
2023/03/12 07:37:04;;;;;;;6.63;2.40;;;11.70;93.60;;;;;;4590248;19;20465;-23
2023/03/12 07:38:37;;;;;;;5.10;2.07;;;11.50;93.30;;;;;;4590819;19;21163;-26
2023/03/12 07:40:12;;;;;;;5.67;2.03;;;11.40;93.40;;;;;;4590616;19;21128;-26
2023/03/12 07:41:43;;;;;;;4.80;1.60;;;11.30;93.60;;;;;;4591121;19;20475;-26
2023/03/12 07:43:15;;;;;;;5.32;1.83;;;11.30;93.50;;;;;;4592853;19;20464;-26
2023/03/12 07:44:47;;;;;;;4.47;2.27;;;11.40;93.60;;;;;;4590161;19;20018;-27
2023/03/12 07:46:19;;;;;;;5.93;1.70;;;11.40;93.60;;;;;;4592306;19;20461;-26
2023/03/12 07:47:51;;;;;;;5.10;2.33;;;11.40;93.50;;;;;;4592544;19;20501;-29
2023/03/12 07:49:22;;;;;;;5.35;1.75;;;11.30;93.40;;;;;;4592165;19;20015;-27
2023/03/12 07:50:55;;;;;;;6.57;2.03;;;11.30;93.40;;;;;;4591612;19;20029;-27
2023/03/12 07:52:26;;;;;;;5.45;1.70;;;11.30;93.30;;;;;;4588976;19;20477;-26
2023/03/12 07:53:58;;;;;;;5.03;2.00;;;11.30;93.40;;;;;;4590743;19;20011;-25
2023/03/12 07:55:32;;;;;;;6.77;2.23;;;11.20;93.20;;;;;;4593290;19;20018;-25
2023/03/12 07:57:04;;;;;;;6.23;1.93;;;11.20;93.40;;;;;;4590329;19;20467;-25
2023/03/12 07:58:37;;;;;;;9.93;5.37;;;11.30;93.50;;;;;;4590990;19;20425;-31
2023/03/12 08:00:11;;;;;;;10.10;5.47;;;11.30;93.50;;;;;;4591460;19;20456;-26
2023/03/12 08:01:43;;;;;;;7.20;3.00;;;11.30;93.40;;;;;;4590325;19;20449;-25
2023/03/12 08:03:15;;;;;;;17.10;9.73;;;11.40;93.30;;;;;;4591403;19;20760;-28
2023/03/12 08:04:47;;;;;;;9.38;4.80;;;11.40;93.40;;;;;;4590756;19;20030;-25
2023/03/12 08:06:18;;;;;;;13.05;6.68;;;11.30;93.40;;;;;;4591647;19;20073;-27